DEMYK EDDH-EDHL
Flight info
| Callsign | DEMYK |
|---|---|
| Flight time | 0h 21m |
| Altitude | |
| Route | |
| Aircraft | P28A |
Departure
| Time | 2026-05-07 18:43 |
|---|---|
| Airport | Hamburg Helmut Schmidt Airport (EDDH) |
Arrival
| Time | 2026-05-07 19:04 |
|---|---|
| Airport | Lübeck Blankensee Airport (EDHL) |
| Time | Latitude | Longitude | Altitude | Speed | Heading |
|---|---|---|---|---|---|
| 2026-05-07 18:33 | 53.62621 | 9.99012 | 41 ft | 0 kts | 61° |
| 2026-05-07 18:38 | 53.62626 | 9.98967 | 41 ft | 9 kts | 281° |
| 2026-05-07 18:38 | 53.62681 | 9.98892 | 41 ft | 14 kts | 334° |
| 2026-05-07 18:38 | 53.62771 | 9.98814 | 41 ft | 15 kts | 332° |
| 2026-05-07 18:38 | 53.62837 | 9.98851 | 42 ft | 12 kts | 53° |
| 2026-05-07 18:39 | 53.62896 | 9.98972 | 42 ft | 14 kts | 49° |
| 2026-05-07 18:39 | 53.62959 | 9.99096 | 42 ft | 13 kts | 49° |
| 2026-05-07 18:39 | 53.63015 | 9.99206 | 42 ft | 12 kts | 50° |
| 2026-05-07 18:39 | 53.63071 | 9.99284 | 42 ft | 8 kts | 26° |
| 2026-05-07 18:40 | 53.63100 | 9.99299 | 41 ft | 0 kts | 13° |
| 2026-05-07 18:41 | 53.63106 | 9.99301 | 42 ft | 6 kts | 13° |
| 2026-05-07 18:41 | 53.63197 | 9.99342 | 42 ft | 18 kts | 17° |
| 2026-05-07 18:41 | 53.63281 | 9.99340 | 41 ft | 10 kts | 290° |
| 2026-05-07 18:42 | 53.63274 | 9.99311 | 41 ft | 3 kts | 120° |
| 2026-05-07 18:42 | 53.63341 | 9.99335 | 41 ft | 29 kts | 336° |
| 2026-05-07 18:42 | 53.63724 | 9.99003 | 150 ft | 82 kts | 340° |
| 2026-05-07 18:42 | 53.64311 | 9.98546 | 447 ft | 97 kts | 338° |
| 2026-05-07 18:43 | 53.64903 | 9.98364 | 994 ft | 85 kts | 24° |
| 2026-05-07 18:43 | 53.65391 | 9.98958 | 1186 ft | 89 kts | 53° |
| 2026-05-07 18:43 | 53.65791 | 9.99873 | 1273 ft | 103 kts | 64° |
| 2026-05-07 18:43 | 53.66183 | 10.00942 | 1361 ft | 110 kts | 59° |
| 2026-05-07 18:44 | 53.66648 | 10.01845 | 1549 ft | 100 kts | 36° |
| 2026-05-07 18:44 | 53.67318 | 10.02147 | 1643 ft | 95 kts | 19° |
| 2026-05-07 18:44 | 53.67912 | 10.02241 | 1756 ft | 84 kts | 8° |
| 2026-05-07 18:44 | 53.68513 | 10.02128 | 1813 ft | 88 kts | 0° |
| 2026-05-07 18:45 | 53.69092 | 10.01951 | 1930 ft | 85 kts | 357° |
| 2026-05-07 18:45 | 53.69736 | 10.01708 | 2077 ft | 103 kts | 355° |
| 2026-05-07 18:45 | 53.70477 | 10.01470 | 2192 ft | 114 kts | 356° |
| 2026-05-07 18:45 | 53.71288 | 10.01234 | 2272 ft | 122 kts | 356° |
| 2026-05-07 18:46 | 53.72147 | 10.00992 | 2361 ft | 126 kts | 356° |
| 2026-05-07 18:46 | 53.73009 | 10.00797 | 2487 ft | 126 kts | 357° |
| 2026-05-07 18:46 | 53.73882 | 10.00681 | 2609 ft | 124 kts | 6° |
| 2026-05-07 18:46 | 53.74734 | 10.00756 | 2502 ft | 117 kts | 10° |
| 2026-05-07 18:47 | 53.75611 | 10.00884 | 2429 ft | 129 kts | 11° |
| 2026-05-07 18:47 | 53.76475 | 10.00978 | 2494 ft | 122 kts | 9° |
| 2026-05-07 18:47 | 53.77276 | 10.01078 | 2469 ft | 110 kts | 10° |
| 2026-05-07 18:47 | 53.78018 | 10.01186 | 2434 ft | 105 kts | 11° |
| 2026-05-07 18:48 | 53.78732 | 10.01318 | 2401 ft | 103 kts | 14° |
| 2026-05-07 18:48 | 53.79435 | 10.01631 | 2281 ft | 112 kts | 33° |
| 2026-05-07 18:48 | 53.80088 | 10.02424 | 2476 ft | 123 kts | 47° |
| 2026-05-07 18:48 | 53.80628 | 10.03492 | 2675 ft | 114 kts | 56° |
| 2026-05-07 18:49 | 53.81105 | 10.04607 | 2749 ft | 121 kts | 57° |
| 2026-05-07 18:49 | 53.81587 | 10.05797 | 2879 ft | 121 kts | 60° |
| 2026-05-07 18:49 | 53.81994 | 10.07022 | 2910 ft | 122 kts | 67° |
| 2026-05-07 18:49 | 53.82300 | 10.08319 | 3011 ft | 117 kts | 75° |
| 2026-05-07 18:50 | 53.82571 | 10.09650 | 2944 ft | 123 kts | 64° |
| 2026-05-07 18:50 | 53.82846 | 10.10839 | 3027 ft | 97 kts | 79° |
| 2026-05-07 18:50 | 53.82986 | 10.11876 | 3091 ft | 85 kts | 79° |
| 2026-05-07 18:50 | 53.83123 | 10.12826 | 3082 ft | 85 kts | 78° |
| 2026-05-07 18:51 | 53.83267 | 10.13829 | 3029 ft | 86 kts | 77° |
| 2026-05-07 18:51 | 53.83420 | 10.14766 | 3054 ft | 81 kts | 89° |
| 2026-05-07 18:51 | 53.83384 | 10.15762 | 2963 ft | 88 kts | 96° |
| 2026-05-07 18:51 | 53.83247 | 10.16798 | 2901 ft | 95 kts | 104° |
| 2026-05-07 18:52 | 53.83007 | 10.18001 | 2992 ft | 106 kts | 106° |
| 2026-05-07 18:52 | 53.82974 | 10.19193 | 2988 ft | 103 kts | 88° |
| 2026-05-07 18:52 | 53.83017 | 10.20415 | 3081 ft | 106 kts | 88° |
| 2026-05-07 18:52 | 53.83068 | 10.21677 | 3164 ft | 112 kts | 87° |
| 2026-05-07 18:53 | 53.83136 | 10.22988 | 3342 ft | 107 kts | 87° |
| 2026-05-07 18:53 | 53.83203 | 10.24256 | 3484 ft | 108 kts | 86° |
| 2026-05-07 18:53 | 53.83281 | 10.25569 | 3518 ft | 115 kts | 85° |
| 2026-05-07 18:53 | 53.83372 | 10.26842 | 3491 ft | 99 kts | 83° |
| 2026-05-07 18:54 | 53.83434 | 10.27924 | 3356 ft | 94 kts | 90° |
| 2026-05-07 18:54 | 53.83435 | 10.29037 | 3264 ft | 94 kts | 90° |
| 2026-05-07 18:54 | 53.83457 | 10.30069 | 3162 ft | 76 kts | 81° |
| 2026-05-07 18:54 | 53.83561 | 10.30913 | 2999 ft | 75 kts | 82° |
| 2026-05-07 18:55 | 53.83552 | 10.31773 | 2807 ft | 73 kts | 96° |
| 2026-05-07 18:55 | 53.83468 | 10.32652 | 2500 ft | 80 kts | 97° |
| 2026-05-07 18:55 | 53.83227 | 10.33482 | 2242 ft | 83 kts | 124° |
| 2026-05-07 18:55 | 53.82809 | 10.34143 | 2105 ft | 84 kts | 132° |
| 2026-05-07 18:56 | 53.82322 | 10.34849 | 1976 ft | 99 kts | 134° |
| 2026-05-07 18:56 | 53.81906 | 10.35797 | 2067 ft | 103 kts | 99° |
| 2026-05-07 18:56 | 53.81889 | 10.37164 | 2070 ft | 126 kts | 89° |
| 2026-05-07 18:56 | 53.81949 | 10.38613 | 2063 ft | 123 kts | 84° |
| 2026-05-07 18:57 | 53.82052 | 10.40014 | 2144 ft | 117 kts | 84° |
| 2026-05-07 18:57 | 53.82132 | 10.41388 | 2195 ft | 118 kts | 85° |
| 2026-05-07 18:57 | 53.82237 | 10.42734 | 2228 ft | 105 kts | 82° |
| 2026-05-07 18:57 | 53.82385 | 10.43883 | 2174 ft | 100 kts | 78° |
| 2026-05-07 18:58 | 53.82527 | 10.45004 | 2095 ft | 97 kts | 79° |
| 2026-05-07 18:58 | 53.82675 | 10.46131 | 2024 ft | 98 kts | 78° |
| 2026-05-07 18:58 | 53.82800 | 10.47263 | 1967 ft | 97 kts | 81° |
| 2026-05-07 18:58 | 53.82930 | 10.48467 | 1992 ft | 114 kts | 81° |
| 2026-05-07 18:59 | 53.83064 | 10.49843 | 2014 ft | 120 kts | 81° |
| 2026-05-07 18:59 | 53.83167 | 10.51225 | 2078 ft | 117 kts | 92° |
| 2026-05-07 18:59 | 53.82901 | 10.52553 | 2114 ft | 127 kts | 109° |
| 2026-05-07 18:59 | 53.82596 | 10.53879 | 2001 ft | 113 kts | 109° |
| 2026-05-07 19:00 | 53.82404 | 10.54670 | 1944 ft | 107 kts | 110° |
| 2026-05-07 19:00 | 53.82109 | 10.55845 | 1894 ft | 115 kts | 109° |
| 2026-05-07 19:00 | 53.81790 | 10.57098 | 1822 ft | 117 kts | 109° |
| 2026-05-07 19:00 | 53.81472 | 10.58374 | 1772 ft | 115 kts | 109° |
| 2026-05-07 19:01 | 53.81161 | 10.59627 | 1672 ft | 113 kts | 109° |
| 2026-05-07 19:01 | 53.80861 | 10.60799 | 1597 ft | 105 kts | 110° |
| 2026-05-07 19:01 | 53.80568 | 10.61932 | 1607 ft | 98 kts | 110° |
| 2026-05-07 19:01 | 53.80314 | 10.62934 | 1564 ft | 90 kts | 108° |
| 2026-05-07 19:02 | 53.80079 | 10.63887 | 1496 ft | 87 kts | 108° |
| 2026-05-07 19:02 | 53.79877 | 10.64851 | 1375 ft | 88 kts | 102° |
| 2026-05-07 19:02 | 53.79806 | 10.65854 | 1224 ft | 87 kts | 91° |
| 2026-05-07 19:02 | 53.79759 | 10.66852 | 979 ft | 84 kts | 90° |
| 2026-05-07 19:03 | 53.79769 | 10.67797 | 717 ft | 72 kts | 78° |
| 2026-05-07 19:03 | 53.79894 | 10.68612 | 483 ft | 74 kts | 69° |
| 2026-05-07 19:03 | 53.80055 | 10.69444 | 307 ft | 72 kts | 69° |
| 2026-05-07 19:03 | 53.80210 | 10.70232 | 113 ft | 70 kts | 70° |
| 2026-05-07 19:04 | 53.80346 | 10.70937 | 57 ft | 51 kts | 78° |
| 2026-05-07 19:04 | 53.80446 | 10.71464 | 62 ft | 45 kts | 70° |
| 2026-05-07 19:04 | 53.80532 | 10.71922 | 54 ft | 29 kts | 73° |
| 2026-05-07 19:04 | 53.80596 | 10.71888 | 56 ft | 21 kts | 291° |
| 2026-05-07 19:05 | 53.80618 | 10.71796 | 57 ft | 0 kts | 293° |
| 2026-05-07 19:05 | 53.80639 | 10.71719 | 53 ft | 20 kts | 295° |
| 2026-05-07 19:06 | 53.80642 | 10.71457 | 55 ft | 24 kts | 250° |
| 2026-05-07 19:06 | 53.80503 | 10.70733 | 54 ft | 36 kts | 254° |
| 2026-05-07 19:06 | 53.80451 | 10.70446 | 53 ft | 9 kts | 292° |
| 2026-05-07 19:07 | 53.80536 | 10.70336 | 53 ft | 19 kts | 327° |
| 2026-05-07 19:07 | 53.80603 | 10.70400 | 53 ft | 12 kts | 64° |
| 2026-05-07 19:07 | 53.80597 | 10.70439 | 53 ft | 0 kts | 139° |